Free Trial

This company has been marked as potentially delisted and may not be actively trading.

Cadence Bank (CADE) Institutional Ownership

Cadence Bank logo

Institutional Ownership Changes (13F Filings) for Cadence Bank (NYSE:CADE)

Current
Institutional Ownership
Percentage
84.61%
Number of
Institutional Buyers
(last 12 months)
287
Total
Institutional Inflows
(last 12 months)
$2.32B
Number of
Institutional Sellers
(last 12 months)
165
Total
Institutional Outflows
(last 12 months)
$1.50B
Get CADE Insider Trade Alerts

Want to know when executives and insiders are buying or selling Cadence Bank stock? Sign up for InsiderTrades.com's daily newsletter to get the latest insider transactions delivered to your inbox daily.

SMS is currently available in Australia, Belgium, Canada, France, Germany, Ireland, Italy, New Zealand, the Netherlands, Singapore, South Africa, Spain, Switzerland, the United Kingdom, and the United States. By entering your phone number and clicking the sign-up button, you agree to receive periodic text messages from MarketBeat at the phone number you submitted, including texts that may be sent using an automatic telephone dialing system. Message and data rates may apply. Message frequency will vary. Messages will consist of stock alerts, news stories, and partner advertisements/offers. Consent is not a condition of the purchase of any goods or services. Text HELP for help/customer support. Unsubscribe at any time by replying "STOP" to any text message that you receive from MarketBeat or by visiting our mailing preferences page. Read our full terms of service and privacy policy.
Skip Chart & View Institutional Buying and Selling Data

CADE Institutional Buying and Selling by Quarter

Cadence Bank Major Shareholders & Ownership History

Reporting DateMajor Shareholder NameShares HeldMarket Value% of PortfolioQuarterly Change in SharesOwnership in CompanyDetails
3/17/2026Rockefeller Capital Management L.P.10,795$462K0.0%+3.4%0.006%
3/9/2026Corient Private Wealth LLC25,418$1.09M0.0%-2.9%0.014%
3/6/2026 Hsbc Holdings PLC220,628$9.46M0.0%+90.6%0.121%
2/24/2026Pacer Advisors Inc.22,280$954K0.0%-33.7%0.012%
2/23/2026Virtu Financial LLC7,648$328K0.0%N/A0.004%
2/19/2026T. Rowe Price Investment Management Inc.638,531$27.36M0.0%-87.4%0.350%
2/19/2026TMB Capital Partners LLC5,710$245K0.1%N/A0.003%
2/19/2026Invesco Ltd.554,385$23.75M0.0%-9.5%0.304%
2/19/2026Corient Private Wealth LLC25,418$1.09M0.0%-2.9%0.014%
2/19/2026 Alberta Investment Management Corp58,120$2.49M0.0%N/A0.032%
2/18/2026Mercer Global Advisors Inc. ADV14,544$623K0.0%+23.2%0.008%
2/18/2026Beacon Pointe Advisors LLC16,010$686K0.0%-2.0%0.009%
2/18/2026State of Tennessee Department of Treasury71,625$3.02M0.0%-4.1%0.039%
2/18/2026Mackenzie Financial Corp11,703$504K0.0%-95.3%0.006%
2/18/2026Fuller & Thaler Asset Management Inc.2,664,785$114.16M0.4%-26.3%1.462%
2/18/2026NewEdge Advisors LLC8,710$373K0.0%+3,384.0%0.005%
2/18/2026XTX Topco Ltd61,042$2.62M0.1%+207.8%0.033%
2/18/2026Water Island Capital LLC297,603$12.75M1.4%N/A0.163%
2/18/2026Wellington Management Group LLP6,173,767$264.48M0.1%-54.2%3.388%
2/18/2026SummitTX Capital L.P.139,317$5.97M0.2%N/A0.076%
2/18/2026Toronto Dominion Bank1,688,900$72.35M0.1%N/A0.927%
2/18/2026Tudor Investment Corp ET AL214,835$9.20M0.0%N/A0.118%
2/18/2026Silvercrest Asset Management Group LLC1,944,531$83.30M0.6%-51.1%1.067%
2/18/2026Oxford Asset Management LLP16,774$719K0.3%N/A0.009%
2/18/2026Millennium Management LLC1,472,333$63.08M0.0%+136.3%0.808%
2/18/2026Interval Partners LP430,330$18.44M0.3%+416.8%0.236%
2/18/2026Engineers Gate Manager LP17,516$750K0.0%N/A0.010%
2/18/2026Balyasny Asset Management L.P.3,675,033$157.44M0.2%+1,481.7%2.017%
2/18/2026Bridgeway Capital Management LLC50,833$2.18M0.0%-51.6%0.028%
2/17/2026Freestone Grove Partners LP311,017$13.32M0.1%-18.0%0.171%
2/17/2026Guggenheim Capital LLC5,783$248K0.0%-14.6%0.003%
2/17/2026AQR Arbitrage LLC2,179,665$93.38M2.0%N/A1.196%
2/17/2026Schonfeld Strategic Advisors LLC55,675$2.39M0.0%+313.0%0.031%
2/17/2026Polar Asset Management Partners Inc.983,756$42.14M0.5%+10,672.6%0.540%
2/17/2026AQR Capital Management LLC483,757$20.72M0.0%-50.5%0.265%
2/17/2026 Abel Hall LLC13,298$570K0.1%+75.5%0.007%
2/17/2026Cetera Investment Advisers13,394$574K0.0%+2.3%0.007%
2/17/2026Pentwater Capital Management LP6,230,000$266.89M1.4%N/A3.419%
2/17/2026Sagefield Capital LP578,203$24.77M2.1%N/A0.317%
2/17/2026PenderFund Capital Management Ltd.7,975$342K0.1%N/A0.004%
2/17/2026Amundi10,031$430K0.0%N/A0.006%
2/17/2026Price T Rowe Associates Inc. MD173,189$7.42M0.0%+3.3%0.095%
2/17/2026T. Rowe Price Investment Management Inc.575,152$24.64M0.0%-88.7%0.316%
2/17/2026Weiss Asset Management LP135,082$5.79M0.1%N/A0.074%
2/17/2026California State Teachers Retirement System173,710$7.44M0.0%+0.7%0.095%
2/17/2026Russell Investments Group Ltd.141,878$6.08M0.0%-32.1%0.078%
2/17/2026State of Wisconsin Investment Board10,098$433K0.0%-97.5%0.006%
2/17/2026Captrust Financial Advisors15,928$682K0.0%-16.4%0.009%
2/17/2026Royal Bank of Canada111,809$4.79M0.0%-2.1%0.061%
2/17/2026Magnetar Financial LLC68,305$2.93M0.0%N/A0.037%
2/17/2026 Alberta Investment Management Corp58,120$2.49M0.0%N/A0.032%
2/17/2026Maltese Capital Management LLC49,750$2.13M0.4%+65.8%0.027%
2/16/2026Squarepoint Ops LLC75,113$3.22M0.0%N/A0.041%
2/16/2026Slotnik Capital LLC150,000$6.43M1.5%N/A0.082%
2/16/2026Vanguard Personalized Indexing Management LLC25,135$1.08M0.0%+5.5%0.014%
2/16/2026Verition Fund Management LLC190,079$8.14M0.0%-6.3%0.104%
2/16/2026MML Investors Services LLC8,574$367K0.0%+4.2%0.005%
2/16/2026Mariner LLC7,463$320K0.0%N/A0.004%
2/16/2026NFJ Investment Group LLC634,326$27.18M1.0%+0.4%0.348%
2/16/2026Healthcare of Ontario Pension Plan Trust Fund813,391$34.85M0.1%+2,292.3%0.446%
2/16/2026Kennedy Capital Management LLC391,355$16.77M0.4%+66.3%0.215%
2/16/2026Barclays PLC471,326$20.19M0.0%+3.5%0.259%
2/16/2026Aigen Investment Management LP9,067$388K0.1%N/A0.005%
2/13/2026 Kestra Advisory Services LLC7,356$315K0.0%-5.0%0.004%
2/13/2026FORA Capital LLC20,750$889K0.1%N/A0.011%
2/13/2026Westchester Capital Management LLC328,564$14.08M0.6%N/A0.180%
2/13/2026Parkside Financial Bank & Trust2,250$96K0.0%+28.7%0.001%
2/13/2026Marshall Wace LLP124,991$5.36M0.0%N/A0.069%
2/13/2026The Manufacturers Life Insurance Company 441,493$18.91M0.0%-4.3%0.242%
2/13/2026Johnson Investment Counsel Inc.6,688$287K0.0%-8.6%0.004%
2/13/2026Soros Fund Management LLC597,348$25.59M0.3%N/A0.328%
2/13/2026Segall Bryant & Hamill LLC1,012,339$43.37M0.6%-25.0%0.556%
2/13/2026Bridgewater Associates LP436,720$18.71M0.1%+1.6%0.240%
2/13/2026UMB Bank n.a.1,831$78K0.0%+24.8%0.001%
2/13/2026Stifel Financial Corp26,625$1.14M0.0%+11.6%0.015%
2/13/2026Quarry LP73,115$3.13M0.6%N/A0.040%
2/13/2026Neuberger Berman Group LLC927,202$39.72M0.0%+4,717.9%0.509%
2/13/2026Smartleaf Asset Management LLC1,207$52K0.0%+69.0%0.001%
2/13/2026Glazer Capital LLC1,959,734$83.96M2.2%N/A1.075%
2/13/2026First Trust Capital Management L.P.2,112,573$90.50M5.4%N/A1.159%
2/13/2026Morgan Stanley1,582,463$67.79M0.0%+27.4%0.868%
2/13/2026Public Sector Pension Investment Board100,000$4.28M0.0%N/A0.055%
2/13/2026Rafferty Asset Management LLC195,091$8.36M0.0%-32.5%0.107%
2/13/2026First Trust Advisors LP2,171,915$93.05M0.1%-17.2%1.192%
2/13/2026Charles Schwab Investment Management Inc.2,125,473$91.06M0.0%-1.9%1.166%
2/13/2026Carmignac Gestion70,869$3.04M0.0%N/A0.039%
2/13/2026 Police & Firemen s Retirement System of New Jersey50,433$2.16M0.0%+2.0%0.028%
2/13/2026State Street Corp8,839,696$381.22M0.0%-5.8%4.851%
2/13/2026Boston Partners845,976$36.29M0.0%+21.4%0.464%
2/13/2026UBS AM a distinct business unit of UBS ASSET MANAGEMENT AMERICAS LLC382,691$16.39M0.0%-6.4%0.210%
2/13/2026Wells Fargo & Company MN216,754$9.29M0.0%+44.1%0.119%
2/12/2026CI Investments Inc.8,199$351K0.0%+359.1%0.004%
2/12/2026Fiduciary Group LLC20,735$888K0.1%+13.0%0.011%
2/12/2026Jane Street Group LLC22,679$972K0.0%-44.9%0.012%
2/12/2026DRW Securities LLC22,507$964K0.0%-61.3%0.012%
2/12/2026Orion Porfolio Solutions LLC12,076$517K0.0%-12.8%0.007%
2/12/2026MetLife Investment Management LLC190,755$8.17M0.0%-5.2%0.105%
2/12/2026Cibc World Markets Corp12,360$530K0.0%N/A0.007%
2/12/2026 Commonwealth Equity Services LLC12,577$539K0.0%+110.5%0.007%
2/12/2026Dimensional Fund Advisors LP9,847,224$421.86M0.1%+0.1%5.404%


CADE Institutional Ownership - Frequently Asked Questions

Who are the largest shareholders of CADE shares?

During the previous two years, 423 institutional investors and hedge funds held shares of Cadence Bank. The most heavily invested institutionals were Vanguard Group Inc. ($857.94M), FMR LLC ($523.07M), Dimensional Fund Advisors LP ($421.86M), State Street Corp ($381.22M), Pentwater Capital Management LP ($266.89M), North Reef Capital Management LP ($264.85M), and Wellington Management Group LLP ($264.48M).Learn more on Cadence Bank's institutional investors.

What percentage of Cadence Bank's stock is owned by institutional investors?

84.61% of Cadence Bank's stock is owned by institutional investors. Learn more on CADE's institutional investor holdings.

Which institutional investors have been buying Cadence Bank's stock?

Of the 364 institutional investors that purchased Cadence Bank's stock in the last 24 months, the following investors and hedge funds have bought the highest volume of shares: North Reef Capital Management LP ($7.06M), Norges Bank ($6.63M), Pentwater Capital Management LP ($6.23M), Balyasny Asset Management L.P. ($3.44M), Channing Capital Management LLC ($2.37M), Millennium Management LLC ($2.33M), and AQR Arbitrage LLC ($2.18M).

How much institutional buying is happening at Cadence Bank?

Institutional investors have bought a total of 59,697,544 shares in the last 24 months. This purchase volume represents approximately $2.32B in transactions.

Which of Cadence Bank's major shareholders have been selling company stock?

Of the 165 institutional investors that sold Cadence Bank's stock in the last 24 months, the following investors and hedge funds have sold the highest volume of shares: T. Rowe Price Investment Management Inc. ($8.93M), Wellington Management Group LLP ($7.92M), Vaughan Nelson Investment Management L.P. ($2.13M), Silvercrest Asset Management Group LLC ($2.03M), Fuller & Thaler Asset Management Inc. ($1.90M), State Street Corp ($1.02M), and Fisher Asset Management LLC ($908.17K).

How much institutional selling is happening at Cadence Bank?

Institutional investors have sold a total of 36,459,391 shares in the last 24 months. This volume of shares sold represents approximately $1.50B in transactions.



This page (NYSE:CADE) was last updated on 5/5/2026 by MarketBeat.com Staff.
From Our Partners